createdAt,value
2018-02-27T00:00:45.616Z,7.6
2018-02-27T00:01:47.365Z,7.4
2018-02-27T00:02:49.654Z,7.3
2018-02-27T00:03:51.688Z,7.6
2018-02-27T00:04:53.890Z,7.6
2018-02-27T00:05:56.287Z,6.9
2018-02-27T00:06:58.512Z,7.5
2018-02-27T00:08:00.746Z,7.2
2018-02-27T00:09:03.133Z,7.7
2018-02-27T00:10:05.233Z,7.1
2018-02-27T00:11:07.390Z,7.0
2018-02-27T00:12:09.751Z,7.1
2018-02-27T00:13:12.017Z,6.6
2018-02-27T00:14:14.130Z,6.5
2018-02-27T00:15:16.576Z,6.7
2018-02-27T00:16:18.891Z,7.0
2018-02-27T00:17:20.929Z,7.0
2018-02-27T00:18:22.982Z,6.9
2018-02-27T00:19:25.410Z,7.8
2018-02-27T00:20:27.481Z,7.0
2018-02-27T00:21:29.753Z,7.1
2018-02-27T00:22:31.828Z,6.7
2018-02-27T00:23:33.940Z,6.7
2018-02-27T00:24:36.118Z,6.2
2018-02-27T00:25:38.212Z,6.3
2018-02-27T00:26:40.402Z,5.8
2018-02-27T00:27:42.733Z,5.9
2018-02-27T00:28:45.233Z,6.0
2018-02-27T00:29:47.415Z,6.6
2018-02-27T00:30:49.235Z,5.5
2018-02-27T00:31:51.348Z,5.9
2018-02-27T00:32:53.428Z,5.8
2018-02-27T00:33:55.584Z,5.9
2018-02-27T00:34:57.670Z,5.5
2018-02-27T00:35:59.802Z,6.3
2018-02-27T00:37:01.972Z,5.6
2018-02-27T00:38:04.143Z,5.7
2018-02-27T00:39:06.233Z,5.3
2018-02-27T00:40:08.369Z,5.7
2018-02-27T00:41:10.366Z,5.3
2018-02-27T00:42:12.559Z,5.8
2018-02-27T00:43:14.627Z,5.6
2018-02-27T00:44:16.756Z,5.2
2018-02-27T00:45:18.811Z,6.1
2018-02-27T00:46:20.999Z,6.2
2018-02-27T00:47:23.010Z,5.8
2018-02-27T00:48:25.467Z,6.0
2018-02-27T00:49:27.458Z,5.6
2018-02-27T00:50:29.644Z,6.1
2018-02-27T00:51:31.598Z,6.0
2018-02-27T00:52:33.677Z,6.0
2018-02-27T00:53:35.781Z,5.9
2018-02-27T00:54:37.948Z,6.5
2018-02-27T00:55:39.803Z,5.9
2018-02-27T00:56:41.932Z,5.9
2018-02-27T00:57:44.297Z,6.1
2018-02-27T00:58:46.270Z,5.7
2018-02-27T00:59:48.751Z,6.6
2018-02-27T01:00:51.217Z,6.5
2018-02-27T01:01:53.188Z,6.7
2018-02-27T01:02:55.393Z,6.1
2018-02-27T01:03:57.534Z,6.4
2018-02-27T01:04:59.588Z,6.4
2018-02-27T01:06:01.641Z,6.1
2018-02-27T01:07:04.089Z,6.1
2018-02-27T01:08:06.550Z,6.5
2018-02-27T01:09:08.603Z,6.3
2018-02-27T01:10:11.000Z,6.5
2018-02-27T01:11:13.088Z,6.6
2018-02-27T01:12:15.386Z,6.3
2018-02-27T01:13:17.461Z,6.3
2018-02-27T01:14:19.416Z,6.4
2018-02-27T01:15:21.459Z,7.2
2018-02-27T01:16:23.508Z,6.9
2018-02-27T01:17:25.709Z,7.3
2018-02-27T01:18:27.726Z,8.0
2018-02-27T01:19:30.209Z,7.2
2018-02-27T01:20:32.228Z,7.3
2018-02-27T01:21:34.246Z,7.3
2018-02-27T01:22:36.357Z,7.8
2018-02-27T01:23:38.389Z,7.0
2018-02-27T01:24:40.533Z,7.5
2018-02-27T01:25:42.633Z,7.1
2018-02-27T01:26:44.398Z,7.3
2018-02-27T01:27:46.650Z,7.1
2018-02-27T01:28:49.071Z,7.6
2018-02-27T01:29:51.555Z,7.7
2018-02-27T01:30:53.581Z,7.9
2018-02-27T01:31:55.581Z,7.7
2018-02-27T01:32:57.605Z,7.4
2018-02-27T01:33:59.408Z,8.1
2018-02-27T01:35:01.334Z,8.2
2018-02-27T01:36:03.359Z,8.0
2018-02-27T01:37:05.441Z,8.0
2018-02-27T01:38:07.724Z,7.8
2018-02-27T01:39:09.713Z,8.3
2018-02-27T01:40:11.744Z,8.6
2018-02-27T01:41:13.725Z,8.3
2018-02-27T01:42:15.679Z,8.0
2018-02-27T01:43:17.851Z,7.9
2018-02-27T01:44:19.785Z,8.3
2018-02-27T01:45:22.076Z,8.3
2018-02-27T01:46:24.679Z,8.2
2018-02-27T01:47:26.817Z,7.8
2018-02-27T01:48:29.378Z,7.5
2018-02-27T01:49:31.861Z,8.1
2018-02-27T01:50:34.020Z,8.1
2018-02-27T01:51:36.347Z,7.8
2018-02-27T01:52:38.765Z,8.4
2018-02-27T01:53:40.964Z,8.2
2018-02-27T01:54:42.912Z,8.6
2018-02-27T01:55:44.895Z,8.3
2018-02-27T01:56:47.027Z,8.5
2018-02-27T01:57:49.070Z,8.2
2018-02-27T01:58:51.153Z,7.8
2018-02-27T01:59:53.428Z,8.7
2018-02-27T02:00:55.334Z,8.1
2018-02-27T02:01:57.464Z,8.2
2018-02-27T02:02:59.445Z,8.2
2018-02-27T02:04:01.545Z,8.1
2018-02-27T02:05:04.085Z,7.8
2018-02-27T02:06:06.216Z,7.5
2018-02-27T02:07:08.742Z,8.2
2018-02-27T02:08:10.893Z,8.4
2018-02-27T02:09:12.984Z,8.4
2018-02-27T02:10:15.272Z,8.4
2018-02-27T02:11:17.268Z,8.3
2018-02-27T02:12:19.145Z,8.3
2018-02-27T02:13:21.212Z,7.8
2018-02-27T02:14:23.062Z,8.5
2018-02-27T02:15:25.012Z,8.4
2018-02-27T02:16:27.139Z,7.7
2018-02-27T02:17:29.199Z,7.9
2018-02-27T02:18:31.323Z,8.1
2018-02-27T02:19:33.777Z,7.6
2018-02-27T02:20:35.652Z,8.0
2018-02-27T02:21:37.509Z,7.7
2018-02-27T02:22:39.300Z,8.7
2018-02-27T02:23:41.211Z,8.2
2018-02-27T02:24:43.123Z,8.9
2018-02-27T02:25:45.509Z,9.3
2018-02-27T02:26:47.229Z,8.6
2018-02-27T02:27:49.299Z,8.0
2018-02-27T02:28:51.223Z,8.1
2018-02-27T02:29:53.164Z,8.3
2018-02-27T02:30:55.275Z,8.5
2018-02-27T02:31:57.224Z,8.4
2018-02-27T02:32:59.783Z,8.6
2018-02-27T02:34:01.926Z,8.5
2018-02-27T02:35:04.352Z,8.9
2018-02-27T02:36:06.231Z,8.4
2018-02-27T02:37:08.240Z,8.9
2018-02-27T02:38:10.026Z,8.4
2018-02-27T02:39:11.960Z,8.6
2018-02-27T02:40:14.386Z,9.0
2018-02-27T02:41:16.239Z,9.0
2018-02-27T02:42:18.138Z,8.2
2018-02-27T02:43:20.003Z,9.5
2018-02-27T02:44:22.128Z,9.0
2018-02-27T02:45:24.045Z,8.8
2018-02-27T02:46:25.898Z,8.8
2018-02-27T02:47:27.872Z,8.6
2018-02-27T02:48:30.017Z,8.6
2018-02-27T02:49:32.515Z,8.8
2018-02-27T02:50:34.615Z,8.7
2018-02-27T02:51:36.444Z,9.1
2018-02-27T02:52:38.288Z,8.6
2018-02-27T02:53:40.293Z,8.6
2018-02-27T02:54:42.769Z,8.6
2018-02-27T02:55:44.704Z,9.1
2018-02-27T02:56:46.478Z,8.4
2018-02-27T02:57:48.593Z,8.6
2018-02-27T02:58:50.386Z,8.1
2018-02-27T02:59:52.449Z,8.9
2018-02-27T03:00:54.285Z,8.5
2018-02-27T03:01:56.314Z,8.2
2018-02-27T03:02:58.349Z,8.1
2018-02-27T03:04:00.475Z,7.8
2018-02-27T03:05:02.396Z,8.0
2018-02-27T03:06:04.249Z,8.5
2018-02-27T03:07:06.106Z,8.3
2018-02-27T03:08:08.089Z,8.3
2018-02-27T03:09:10.108Z,8.2
2018-02-27T03:10:12.151Z,8.7
2018-02-27T03:11:14.502Z,8.1
2018-02-27T03:12:16.338Z,8.3
2018-02-27T03:13:18.573Z,9.0
2018-02-27T03:14:20.983Z,9.1
2018-02-27T03:15:23.061Z,8.2
2018-02-27T03:16:24.868Z,7.7
2018-02-27T03:17:27.308Z,8.0
2018-02-27T03:18:29.051Z,8.6
2018-02-27T03:19:30.791Z,8.2
2018-02-27T03:20:32.668Z,8.1
2018-02-27T03:21:34.618Z,8.5
2018-02-27T03:22:36.430Z,8.6
2018-02-27T03:23:38.169Z,8.6
2018-02-27T03:24:40.065Z,8.7
2018-02-27T03:25:41.932Z,8.6
2018-02-27T03:26:43.638Z,8.8
2018-02-27T03:27:45.517Z,9.0
2018-02-27T03:28:47.261Z,8.6
2018-02-27T03:29:49.014Z,8.9
2018-02-27T03:30:50.962Z,9.2
2018-02-27T03:31:52.747Z,8.6
2018-02-27T03:32:54.504Z,8.9
2018-02-27T03:33:56.444Z,8.9
2018-02-27T03:34:58.202Z,8.6
2018-02-27T03:36:00.583Z,8.3
2018-02-27T03:37:02.654Z,8.5
2018-02-27T03:38:04.550Z,9.2
2018-02-27T03:39:06.331Z,8.9
2018-02-27T03:40:08.045Z,9.2
2018-02-27T03:41:09.832Z,9.0
2018-02-27T03:42:11.631Z,8.6
2018-02-27T03:43:13.417Z,9.8
2018-02-27T03:44:15.242Z,8.7
2018-02-27T03:45:16.951Z,9.3
2018-02-27T03:46:18.649Z,8.6
2018-02-27T03:47:20.392Z,9.3
2018-02-27T03:48:22.137Z,10.0
2018-02-27T03:49:23.889Z,9.5
2018-02-27T03:50:25.672Z,9.8
2018-02-27T03:51:27.376Z,9.2
2018-02-27T03:52:29.097Z,8.7
2018-02-27T03:53:30.868Z,9.4
2018-02-27T03:54:32.574Z,9.3
2018-02-27T03:55:34.301Z,9.4
2018-02-27T03:56:36.056Z,10.2
2018-02-27T03:57:37.996Z,9.5
2018-02-27T03:58:39.727Z,10.0
2018-02-27T03:59:41.546Z,8.7
2018-02-27T04:00:43.291Z,8.9
2018-02-27T04:01:45.108Z,9.9
2018-02-27T04:02:47.056Z,9.3
2018-02-27T04:03:48.765Z,9.0
2018-02-27T04:04:50.506Z,9.8
2018-02-27T04:05:52.290Z,9.1
2018-02-27T04:06:54.013Z,9.5
2018-02-27T04:07:55.779Z,10.0
2018-02-27T04:08:57.523Z,10.0
2018-02-27T04:09:59.386Z,10.3
2018-02-27T04:11:01.132Z,9.2
2018-02-27T04:12:02.959Z,9.8
2018-02-27T04:13:04.693Z,9.0
2018-02-27T04:14:06.406Z,9.5
2018-02-27T04:15:08.355Z,10.5
2018-02-27T04:16:10.281Z,9.1
2018-02-27T04:17:12.150Z,9.8
2018-02-27T04:18:14.053Z,9.9
2018-02-27T04:19:15.751Z,10.2
2018-02-27T04:20:17.632Z,10.2
2018-02-27T04:21:19.427Z,9.8
2018-02-27T04:22:21.130Z,9.1
2018-02-27T04:23:22.909Z,9.6
2018-02-27T04:24:24.772Z,9.3
2018-02-27T04:25:26.530Z,9.9
2018-02-27T04:26:28.218Z,9.9
2018-02-27T04:27:30.096Z,9.8
2018-02-27T04:28:31.782Z,9.7
2018-02-27T04:29:33.560Z,10.2
2018-02-27T04:30:35.456Z,10.2
2018-02-27T04:31:37.192Z,9.7
2018-02-27T04:32:38.977Z,10.8
2018-02-27T04:33:40.688Z,10.6
2018-02-27T04:34:42.399Z,10.6
2018-02-27T04:35:44.277Z,11.0
2018-02-27T04:36:46.006Z,11.3
2018-02-27T04:37:47.952Z,10.7
2018-02-27T04:38:49.722Z,11.0
2018-02-27T04:39:51.606Z,10.2
2018-02-27T04:40:53.502Z,11.0
2018-02-27T04:41:55.234Z,11.2
2018-02-27T04:42:56.932Z,10.8
2018-02-27T04:43:58.872Z,11.2
2018-02-27T04:45:00.620Z,10.2
2018-02-27T04:46:02.396Z,11.3
2018-02-27T04:47:04.221Z,10.4
2018-02-27T04:48:06.103Z,10.2
2018-02-27T04:49:07.836Z,10.9
2018-02-27T04:50:09.749Z,10.8
2018-02-27T04:51:11.589Z,10.3
2018-02-27T04:52:13.346Z,10.6
2018-02-27T04:53:15.043Z,11.0
2018-02-27T04:54:16.762Z,9.7
2018-02-27T04:55:18.557Z,11.6
2018-02-27T04:56:20.490Z,11.6
2018-02-27T04:57:22.632Z,11.0
2018-02-27T04:58:24.317Z,11.4
2018-02-27T04:59:26.260Z,10.2
2018-02-27T05:00:28.044Z,11.2
2018-02-27T05:01:29.788Z,10.3
2018-02-27T05:02:31.548Z,11.3
2018-02-27T05:03:33.321Z,11.7
2018-02-27T05:04:35.058Z,11.4
2018-02-27T05:05:36.994Z,11.1
2018-02-27T05:06:38.654Z,10.9
2018-02-27T05:07:40.448Z,11.3
2018-02-27T05:08:42.187Z,11.0
2018-02-27T05:09:43.903Z,11.3
2018-02-27T05:10:46.483Z,11.2
2018-02-27T05:11:48.196Z,11.3
2018-02-27T05:12:49.976Z,11.7
2018-02-27T05:13:51.942Z,11.7
2018-02-27T05:14:53.688Z,11.2
2018-02-27T05:15:55.593Z,11.7
2018-02-27T05:16:57.278Z,12.0
2018-02-27T05:18:01.892Z,11.5
2018-02-27T05:19:05.845Z,11.4
2018-02-27T05:20:07.561Z,11.2
2018-02-27T05:21:10.940Z,11.8
2018-02-27T05:22:14.013Z,12.2
2018-02-27T05:23:18.060Z,10.7
2018-02-27T05:24:20.519Z,11.3
2018-02-27T05:25:24.221Z,11.0
2018-02-27T05:26:26.066Z,11.6
2018-02-27T05:27:28.329Z,11.7
2018-02-27T05:28:30.125Z,11.5
2018-02-27T05:29:31.778Z,11.3
2018-02-27T05:30:33.515Z,10.9
2018-02-27T05:31:35.127Z,10.9
2018-02-27T05:32:36.796Z,10.6
2018-02-27T05:33:38.529Z,10.5
2018-02-27T05:34:40.208Z,11.4
2018-02-27T05:35:41.852Z,11.7
2018-02-27T05:36:43.520Z,10.9
2018-02-27T05:37:45.204Z,11.4
2018-02-27T05:38:46.879Z,11.2
2018-02-27T05:39:48.576Z,11.3
2018-02-27T05:40:50.256Z,10.8
2018-02-27T05:41:51.900Z,11.3
2018-02-27T05:42:55.453Z,11.3
2018-02-27T05:43:57.232Z,12.0
2018-02-27T05:44:58.936Z,11.3
2018-02-27T05:46:00.618Z,11.8
2018-02-27T05:47:02.269Z,11.8
2018-02-27T05:48:03.965Z,11.3
2018-02-27T05:49:05.644Z,12.4
2018-02-27T05:50:07.321Z,11.8
2018-02-27T05:51:09.019Z,12.0
2018-02-27T05:52:10.713Z,12.3
2018-02-27T05:53:12.358Z,12.2
2018-02-27T05:54:14.025Z,12.4
2018-02-27T05:55:15.693Z,12.3
2018-02-27T05:56:17.357Z,12.3
2018-02-27T05:57:18.996Z,12.8
2018-02-27T05:58:20.636Z,12.3
2018-02-27T05:59:22.311Z,12.1
2018-02-27T06:00:23.998Z,12.7
2018-02-27T06:01:25.627Z,12.5
2018-02-27T06:02:27.269Z,11.4
2018-02-27T06:03:28.964Z,11.2
2018-02-27T06:04:30.596Z,11.5
2018-02-27T06:05:32.205Z,10.7
2018-02-27T06:06:33.816Z,11.7
2018-02-27T06:07:35.422Z,10.7
2018-02-27T06:08:37.044Z,11.9
2018-02-27T06:09:38.775Z,11.6
2018-02-27T06:10:40.401Z,11.8
2018-02-27T06:11:42.076Z,10.1
2018-02-27T06:12:43.763Z,11.2
2018-02-27T06:13:45.610Z,10.8
2018-02-27T06:14:47.252Z,11.0
2018-02-27T06:15:49.049Z,11.4
2018-02-27T06:16:50.674Z,11.0
2018-02-27T06:17:52.370Z,11.3
2018-02-27T06:18:54.070Z,11.2
2018-02-27T06:19:55.758Z,11.5
2018-02-27T06:20:57.418Z,11.4
2018-02-27T06:21:59.473Z,12.0
2018-02-27T06:23:01.172Z,11.2
2018-02-27T06:24:02.865Z,12.4
2018-02-27T06:25:04.546Z,11.0
2018-02-27T06:26:06.321Z,11.6
2018-02-27T06:27:08.001Z,11.4
2018-02-27T06:28:09.610Z,12.1
2018-02-27T06:29:11.909Z,10.9
2018-02-27T06:30:13.535Z,11.4
2018-02-27T06:31:15.419Z,11.0
2018-02-27T06:32:17.180Z,11.1
2018-02-27T06:33:18.872Z,11.7
2018-02-27T06:34:20.517Z,11.1
2018-02-27T06:35:22.165Z,12.0
2018-02-27T06:36:23.820Z,11.4
2018-02-27T06:37:25.560Z,12.2
2018-02-27T06:38:27.265Z,12.1
2018-02-27T06:39:28.955Z,12.1
2018-02-27T06:40:30.921Z,12.0
2018-02-27T06:41:32.587Z,12.2
2018-02-27T06:42:34.253Z,12.4
2018-02-27T06:43:36.258Z,11.8
2018-02-27T06:44:38.358Z,12.2
2018-02-27T06:45:40.031Z,11.9
2018-02-27T06:46:41.664Z,11.8
2018-02-27T06:47:44.778Z,11.7
2018-02-27T06:48:45.712Z,11.7
2018-02-27T06:49:47.426Z,11.9
2018-02-27T06:50:49.071Z,11.9
2018-02-27T06:51:50.693Z,11.7
2018-02-27T06:52:52.341Z,11.9
2018-02-27T06:53:53.976Z,12.2
2018-02-27T06:54:55.638Z,11.6
2018-02-27T06:55:57.288Z,11.7
2018-02-27T06:56:59.017Z,11.6
2018-02-27T06:58:00.749Z,11.9
2018-02-27T06:59:02.442Z,11.4
2018-02-27T07:00:04.185Z,11.0
2018-02-27T07:01:05.885Z,11.8
2018-02-27T07:02:07.520Z,11.8
2018-02-27T07:03:09.142Z,11.2
2018-02-27T07:04:10.768Z,11.3
2018-02-27T07:05:12.398Z,11.4
2018-02-27T07:06:14.104Z,11.6
2018-02-27T07:07:15.768Z,10.7
2018-02-27T07:08:17.451Z,11.3
2018-02-27T07:09:19.167Z,10.9
2018-02-27T07:10:21.067Z,11.0
2018-02-27T07:11:22.673Z,11.0
2018-02-27T07:12:24.366Z,11.2
2018-02-27T07:13:26.002Z,11.2
2018-02-27T07:14:27.688Z,11.2
2018-02-27T07:15:29.318Z,11.6
2018-02-27T07:16:30.944Z,10.5
2018-02-27T07:17:32.644Z,11.0
2018-02-27T07:18:34.256Z,11.6
2018-02-27T07:19:35.963Z,11.8
2018-02-27T07:20:37.621Z,10.8
2018-02-27T07:21:39.241Z,10.8
2018-02-27T07:22:40.948Z,10.5
2018-02-27T07:23:42.606Z,10.9
2018-02-27T07:24:44.280Z,11.4
2018-02-27T07:25:45.876Z,11.7
2018-02-27T07:26:47.531Z,11.2
2018-02-27T07:27:49.239Z,11.0
2018-02-27T07:28:50.862Z,11.4
2018-02-27T07:29:52.513Z,10.4
2018-02-27T07:30:54.166Z,9.8
2018-02-27T07:31:55.829Z,10.2
2018-02-27T07:32:57.462Z,9.7
2018-02-27T07:33:59.241Z,10.9
2018-02-27T07:35:00.897Z,10.1
2018-02-27T07:36:02.527Z,10.5
2018-02-27T07:37:04.209Z,10.6
2018-02-27T07:38:05.837Z,10.8
2018-02-27T07:39:07.533Z,9.9
2018-02-27T07:40:09.194Z,9.7
2018-02-27T07:41:10.816Z,10.8
2018-02-27T07:42:12.497Z,10.2
2018-02-27T07:43:14.129Z,9.7
2018-02-27T07:44:15.759Z,11.0
2018-02-27T07:45:17.420Z,9.9
2018-02-27T07:46:19.054Z,10.4
2018-02-27T07:47:20.708Z,9.8
2018-02-27T07:48:22.409Z,9.4
2018-02-27T07:49:24.059Z,10.1
2018-02-27T07:50:25.747Z,10.2
2018-02-27T07:51:27.507Z,9.9
2018-02-27T07:52:29.189Z,10.2
2018-02-27T07:53:30.887Z,9.4
2018-02-27T07:54:32.598Z,9.2
2018-02-27T07:55:34.247Z,9.7
2018-02-27T07:56:35.940Z,9.4
2018-02-27T07:57:37.570Z,8.5
2018-02-27T07:58:39.223Z,9.6
2018-02-27T07:59:40.871Z,9.1
2018-02-27T08:00:42.568Z,9.5
2018-02-27T08:01:44.188Z,9.6
2018-02-27T08:02:45.868Z,9.2
2018-02-27T08:03:47.509Z,9.6
2018-02-27T08:04:49.190Z,8.9
2018-02-27T08:05:50.803Z,8.9
2018-02-27T08:06:52.498Z,8.4
2018-02-27T08:07:54.244Z,8.0
2018-02-27T08:08:55.874Z,7.9
2018-02-27T08:09:57.587Z,8.8
2018-02-27T08:10:59.322Z,8.1
2018-02-27T08:12:01.065Z,8.7
2018-02-27T08:13:02.716Z,8.4
2018-02-27T08:14:04.334Z,8.7
2018-02-27T08:15:05.980Z,8.4
2018-02-27T08:16:07.976Z,7.7
2018-02-27T08:17:09.717Z,7.7
2018-02-27T08:18:11.400Z,7.4
2018-02-27T08:19:13.238Z,7.6
2018-02-27T08:20:14.956Z,7.7
2018-02-27T08:21:16.675Z,7.4
2018-02-27T08:22:18.362Z,7.6
2018-02-27T08:23:20.063Z,7.1
2018-02-27T08:24:21.748Z,8.0
2018-02-27T08:25:23.517Z,7.8
2018-02-27T08:26:25.411Z,7.5
2018-02-27T08:27:27.225Z,7.7
2018-02-27T08:28:28.947Z,6.7
2018-02-27T08:29:30.586Z,7.3
2018-02-27T08:30:32.309Z,6.7
2018-02-27T08:31:34.033Z,7.5
2018-02-27T08:32:35.712Z,7.4
2018-02-27T08:33:37.426Z,6.6
2018-02-27T08:34:39.144Z,7.4
2018-02-27T08:35:40.799Z,6.8
2018-02-27T08:36:42.504Z,6.8
2018-02-27T08:37:44.146Z,6.6
2018-02-27T08:38:45.920Z,6.5
2018-02-27T08:39:47.620Z,6.8
2018-02-27T08:40:49.268Z,6.6
2018-02-27T08:41:50.946Z,6.9
2018-02-27T08:42:52.591Z,6.3
2018-02-27T08:43:54.243Z,6.7
2018-02-27T08:44:55.897Z,6.4
2018-02-27T08:45:57.593Z,6.2
2018-02-27T08:46:59.265Z,6.1
2018-02-27T08:48:00.932Z,6.1
2018-02-27T08:49:02.638Z,6.0
2018-02-27T08:50:04.293Z,6.4
2018-02-27T08:51:05.991Z,6.6
2018-02-27T08:52:07.704Z,6.2
2018-02-27T08:53:09.447Z,6.1
2018-02-27T08:54:11.153Z,6.1
2018-02-27T08:55:12.916Z,5.9
2018-02-27T08:56:14.582Z,5.4
2018-02-27T08:57:16.221Z,5.5
2018-02-27T08:58:17.846Z,5.9
2018-02-27T08:59:19.510Z,6.1
2018-02-27T09:00:21.193Z,6.0
2018-02-27T09:01:23.555Z,5.4
2018-02-27T09:02:25.192Z,5.3
2018-02-27T09:03:26.907Z,5.1
2018-02-27T09:04:28.612Z,4.8
2018-02-27T09:05:30.260Z,4.8
2018-02-27T09:06:31.999Z,4.5
2018-02-27T09:07:33.745Z,5.0
2018-02-27T09:08:35.413Z,4.8
2018-02-27T09:09:37.074Z,4.8
2018-02-27T09:10:38.739Z,4.5
2018-02-27T09:11:40.420Z,4.6
2018-02-27T09:12:42.134Z,4.8
2018-02-27T09:13:43.783Z,4.6
2018-02-27T09:14:45.534Z,4.7
2018-02-27T09:15:47.202Z,4.8
2018-02-27T09:16:48.934Z,5.0
2018-02-27T09:17:50.558Z,4.7
2018-02-27T09:18:52.198Z,5.0
2018-02-27T09:19:53.885Z,4.6
2018-02-27T09:20:55.516Z,4.2
2018-02-27T09:21:57.223Z,4.3
2018-02-27T09:22:58.874Z,4.3
2018-02-27T09:24:00.938Z,4.1
2018-02-27T09:25:03.215Z,4.4
2018-02-27T09:26:05.127Z,4.6
2018-02-27T09:27:06.838Z,4.4
2018-02-27T09:28:08.917Z,4.1
2018-02-27T09:29:10.997Z,4.6
2018-02-27T09:30:13.025Z,4.6
2018-02-27T09:31:15.741Z,4.5
2018-02-27T09:32:17.660Z,4.9
2018-02-27T09:33:19.599Z,4.3
2018-02-27T09:34:21.841Z,4.8
2018-02-27T09:35:24.107Z,4.2
2018-02-27T09:36:27.063Z,4.6
2018-02-27T09:37:29.432Z,5.1
2018-02-27T09:38:31.660Z,4.3
2018-02-27T09:39:33.966Z,3.6
2018-02-27T09:40:36.283Z,3.6
2018-02-27T09:41:38.350Z,3.9
2018-02-27T09:42:40.309Z,4.2
2018-02-27T09:43:42.778Z,3.6
2018-02-27T09:44:44.516Z,3.5
2018-02-27T09:45:46.249Z,3.7
2018-02-27T09:46:48.013Z,3.5
2018-02-27T09:47:49.718Z,3.5
2018-02-27T09:48:51.573Z,3.6
2018-02-27T09:49:53.974Z,3.7
2018-02-27T09:50:56.082Z,3.3
2018-02-27T09:51:57.971Z,3.0
2018-02-27T09:52:59.961Z,2.9
2018-02-27T09:54:02.434Z,2.9
2018-02-27T09:55:04.912Z,3.0
2018-02-27T09:56:07.198Z,3.0
2018-02-27T09:57:09.472Z,3.1
2018-02-27T09:58:11.654Z,2.8
2018-02-27T09:59:13.873Z,3.1
2018-02-27T10:00:16.052Z,2.9
2018-02-27T10:01:17.982Z,2.5
2018-02-27T10:02:19.968Z,2.8
2018-02-27T10:03:21.969Z,2.7
2018-02-27T10:04:23.763Z,2.9
2018-02-27T10:05:25.904Z,2.9
2018-02-27T10:06:27.721Z,2.6
2018-02-27T10:07:30.257Z,2.6
2018-02-27T10:08:32.288Z,2.5
2018-02-27T10:09:34.459Z,2.6
2018-02-27T10:10:36.729Z,2.6
2018-02-27T10:11:38.933Z,2.8
2018-02-27T10:12:41.301Z,2.7
2018-02-27T10:13:44.771Z,2.3
2018-02-27T10:14:46.712Z,3.0
2018-02-27T10:15:48.501Z,2.6
2018-02-27T10:16:50.317Z,2.7
2018-02-27T10:17:52.165Z,2.5
2018-02-27T10:18:54.699Z,2.4
2018-02-27T10:19:56.845Z,2.3
2018-02-27T10:20:59.362Z,2.7
2018-02-27T10:22:01.494Z,2.5
2018-02-27T10:23:03.504Z,2.7
2018-02-27T10:24:05.601Z,2.7
2018-02-27T10:25:14.559Z,3.1
2018-02-27T10:26:16.412Z,2.5
2018-02-27T10:27:18.779Z,2.9
2018-02-27T10:28:21.074Z,2.8
2018-02-27T10:29:23.122Z,2.9
2018-02-27T10:30:25.452Z,2.9
2018-02-27T10:31:28.270Z,2.7
2018-02-27T10:32:30.163Z,3.1
2018-02-27T10:33:31.974Z,2.9
2018-02-27T10:34:34.036Z,3.0
2018-02-27T10:35:36.305Z,2.7
2018-02-27T10:36:38.401Z,2.5
2018-02-27T10:37:40.437Z,2.4
2018-02-27T10:38:42.211Z,2.6
2018-02-27T10:39:44.027Z,2.6
2018-02-27T10:40:45.722Z,2.5
2018-02-27T10:41:48.086Z,2.8
2018-02-27T10:42:50.379Z,2.4
2018-02-27T10:43:52.499Z,3.0
2018-02-27T10:44:54.820Z,3.0
2018-02-27T10:45:57.070Z,2.9
2018-02-27T10:46:59.288Z,2.6
2018-02-27T10:48:01.021Z,2.3
2018-02-27T10:49:03.228Z,2.5
2018-02-27T10:50:05.281Z,2.7
2018-02-27T10:51:07.262Z,2.5
2018-02-27T10:52:09.301Z,2.5
2018-02-27T10:53:11.557Z,2.4
2018-02-27T10:54:13.473Z,2.7
2018-02-27T10:55:15.893Z,2.3
2018-02-27T10:56:18.108Z,2.6
2018-02-27T10:57:20.327Z,2.3
2018-02-27T10:58:22.120Z,2.3
2018-02-27T10:59:23.958Z,2.2
2018-02-27T11:00:25.729Z,2.4
2018-02-27T11:01:27.777Z,2.7
2018-02-27T11:02:30.055Z,2.5
2018-02-27T11:03:32.285Z,2.1
2018-02-27T11:04:34.271Z,2.4
2018-02-27T11:05:36.469Z,2.7
2018-02-27T11:06:38.553Z,2.6
2018-02-27T11:07:40.268Z,2.7
2018-02-27T11:08:42.308Z,2.6
2018-02-27T11:09:43.883Z,2.9
2018-02-27T11:10:45.865Z,2.6
2018-02-27T11:11:47.493Z,2.5
2018-02-27T11:12:49.141Z,2.4
2018-02-27T11:13:50.969Z,2.5
2018-02-27T11:14:52.633Z,2.4
2018-02-27T11:15:54.268Z,2.7
2018-02-27T11:16:56.314Z,2.5
2018-02-27T11:17:58.235Z,2.9
2018-02-27T11:19:00.300Z,2.4
2018-02-27T11:20:02.052Z,2.2
2018-02-27T11:21:03.997Z,2.6
2018-02-27T11:22:06.037Z,2.3
2018-02-27T11:23:07.847Z,2.4
2018-02-27T11:24:09.577Z,2.3
2018-02-27T11:25:11.627Z,2.4
2018-02-27T11:26:13.375Z,2.5
2018-02-27T11:27:15.460Z,2.3
2018-02-27T11:28:17.126Z,2.2
2018-02-27T11:29:18.888Z,2.2
2018-02-27T11:30:20.963Z,2.1
2018-02-27T11:31:22.706Z,1.9
2018-02-27T11:32:24.409Z,1.9
2018-02-27T11:33:26.513Z,2.1
2018-02-27T11:34:28.348Z,2.2
2018-02-27T11:35:30.352Z,1.9
2018-02-27T11:36:32.215Z,2.0
2018-02-27T11:37:33.965Z,2.3
2018-02-27T11:38:36.016Z,2.1
2018-02-27T11:39:37.644Z,2.0
2018-02-27T11:40:39.384Z,1.7
2018-02-27T11:41:41.076Z,1.9
2018-02-27T11:42:42.772Z,1.9
2018-02-27T11:43:45.457Z,1.9
2018-02-27T11:44:47.194Z,1.8
2018-02-27T11:45:49.141Z,1.6
2018-02-27T11:46:51.595Z,1.6
2018-02-27T11:47:53.430Z,1.7
2018-02-27T11:48:55.634Z,2.0
2018-02-27T11:49:57.258Z,1.7
2018-02-27T11:50:59.082Z,1.5
2018-02-27T11:52:00.848Z,1.4
2018-02-27T11:53:02.587Z,1.6
2018-02-27T11:54:04.588Z,1.7
2018-02-27T11:55:06.640Z,1.6
2018-02-27T11:56:08.875Z,1.5
2018-02-27T11:57:11.302Z,1.5
2018-02-27T11:58:13.057Z,1.6
2018-02-27T11:59:14.807Z,1.5
2018-02-27T12:00:16.514Z,1.7
2018-02-27T12:01:18.364Z,1.5
2018-02-27T12:02:20.042Z,1.4
2018-02-27T12:03:21.727Z,1.5
2018-02-27T12:04:23.497Z,1.5
2018-02-27T12:05:25.173Z,1.6
2018-02-27T12:06:26.802Z,1.6
2018-02-27T12:07:28.548Z,1.6
2018-02-27T12:08:30.154Z,1.6
2018-02-27T12:09:31.913Z,1.7
2018-02-27T12:10:33.660Z,1.6
2018-02-27T12:11:35.386Z,1.7
2018-02-27T12:12:37.021Z,1.6
2018-02-27T12:13:38.705Z,1.7
2018-02-27T12:14:40.348Z,1.9
2018-02-27T12:15:42.015Z,1.7
2018-02-27T12:16:43.645Z,1.7
2018-02-27T12:17:45.419Z,2.1
2018-02-27T12:18:47.099Z,1.8
2018-02-27T12:19:48.840Z,2.0
2018-02-27T12:20:50.537Z,2.1
2018-02-27T12:21:52.165Z,1.8
2018-02-27T12:22:53.910Z,1.9
2018-02-27T12:23:55.533Z,1.7
2018-02-27T12:24:57.254Z,1.8
2018-02-27T12:25:59.015Z,1.8
2018-02-27T12:27:00.652Z,2.2
2018-02-27T12:28:02.307Z,1.9
2018-02-27T12:29:04.042Z,1.7
2018-02-27T12:30:05.761Z,1.9
2018-02-27T12:31:07.506Z,1.9
2018-02-27T12:32:09.285Z,1.7
2018-02-27T12:33:10.968Z,1.8
2018-02-27T12:34:12.733Z,1.9
2018-02-27T12:35:14.466Z,1.6
2018-02-27T12:36:16.245Z,1.6
2018-02-27T12:37:17.993Z,1.9
2018-02-27T12:38:19.765Z,1.9
2018-02-27T12:39:21.486Z,1.9
2018-02-27T12:40:23.344Z,2.1
2018-02-27T12:41:25.018Z,2.0
2018-02-27T12:42:26.657Z,1.9
2018-02-27T12:43:28.379Z,2.1
2018-02-27T12:44:30.034Z,2.0
2018-02-27T12:45:31.732Z,2.0
2018-02-27T12:46:33.433Z,1.9
2018-02-27T12:47:35.209Z,1.9
2018-02-27T12:48:36.874Z,2.0
2018-02-27T12:49:38.548Z,2.2
2018-02-27T12:50:40.303Z,1.9
2018-02-27T12:51:42.057Z,1.7
2018-02-27T12:52:43.696Z,1.9
2018-02-27T12:53:45.346Z,1.9
2018-02-27T12:54:47.087Z,2.0
2018-02-27T12:55:48.801Z,2.2
2018-02-27T12:56:50.558Z,2.1
2018-02-27T12:57:52.231Z,2.1
2018-02-27T12:58:54.076Z,2.1
2018-02-27T12:59:55.775Z,1.8
2018-02-27T13:00:57.447Z,2.0
2018-02-27T13:01:59.184Z,1.9
2018-02-27T13:03:00.931Z,1.6
2018-02-27T13:04:02.621Z,1.5
2018-02-27T13:05:04.283Z,1.8
2018-02-27T13:06:05.915Z,1.5
2018-02-27T13:07:07.669Z,1.8
2018-02-27T13:08:10.250Z,1.8
2018-02-27T13:09:12.252Z,1.8
2018-02-27T13:10:13.963Z,1.5
2018-02-27T13:11:15.683Z,1.5
2018-02-27T13:12:17.333Z,1.5
2018-02-27T13:13:18.959Z,1.6
2018-02-27T13:14:20.635Z,1.8
2018-02-27T13:15:22.383Z,1.6
2018-02-27T13:16:24.046Z,1.8
2018-02-27T13:17:25.870Z,1.8
2018-02-27T13:18:27.631Z,2.2
2018-02-27T13:19:29.387Z,1.5
2018-02-27T13:20:31.131Z,1.8
2018-02-27T13:21:33.044Z,2.0
2018-02-27T13:22:35.173Z,1.6
2018-02-27T13:23:36.798Z,1.5
2018-02-27T13:24:38.422Z,1.8
2018-02-27T13:25:40.156Z,2.2
2018-02-27T13:26:41.870Z,2.2
2018-02-27T13:27:43.557Z,2.1
2018-02-27T13:28:45.670Z,1.9
2018-02-27T13:29:47.299Z,2.0
2018-02-27T13:30:49.001Z,1.7
2018-02-27T13:31:50.661Z,1.9
2018-02-27T13:32:52.388Z,2.3
2018-02-27T13:33:54.101Z,2.5
2018-02-27T13:34:55.736Z,1.9
2018-02-27T13:35:57.432Z,2.3
2018-02-27T13:36:59.069Z,2.0
2018-02-27T13:38:00.703Z,1.9
2018-02-27T13:39:02.513Z,2.0
2018-02-27T13:40:04.201Z,2.1
2018-02-27T13:41:05.841Z,2.1
2018-02-27T13:42:07.493Z,1.9
2018-02-27T13:43:09.251Z,1.9
2018-02-27T13:44:10.882Z,1.8
2018-02-27T13:45:12.557Z,2.0
2018-02-27T13:46:14.278Z,2.1
2018-02-27T13:47:15.927Z,1.9
2018-02-27T13:48:17.567Z,1.8
2018-02-27T13:49:24.843Z,1.8
2018-02-27T13:50:20.837Z,1.6
2018-02-27T13:51:22.549Z,1.7
2018-02-27T13:52:24.182Z,1.9
2018-02-27T13:53:25.800Z,1.6
2018-02-27T13:54:27.469Z,1.9
2018-02-27T13:55:29.114Z,1.7
2018-02-27T13:56:30.756Z,1.6
2018-02-27T13:57:32.426Z,1.4
2018-02-27T13:58:34.096Z,1.7
2018-02-27T13:59:35.732Z,1.5
2018-02-27T14:00:37.393Z,1.7
2018-02-27T14:01:39.014Z,1.5
2018-02-27T14:02:40.695Z,1.6
2018-02-27T14:03:42.341Z,1.6
2018-02-27T14:04:43.964Z,1.5
2018-02-27T14:05:45.643Z,1.3